createdAt,value
2018-09-23T00:00:07.407Z,11.78
2018-09-23T00:01:07.282Z,11.74
2018-09-23T00:02:07.158Z,11.80
2018-09-23T00:03:07.035Z,11.83
2018-09-23T00:04:06.913Z,11.83
2018-09-23T00:05:06.787Z,11.83
2018-09-23T00:06:06.662Z,11.72
2018-09-23T00:07:06.537Z,11.82
2018-09-23T00:08:06.414Z,11.77
2018-09-23T00:09:06.290Z,11.72
2018-09-23T00:10:06.170Z,11.67
2018-09-23T00:11:06.044Z,11.71
2018-09-23T00:12:05.917Z,11.83
2018-09-23T00:13:05.794Z,11.82
2018-09-23T00:14:05.688Z,11.75
2018-09-23T00:15:05.545Z,11.80
2018-09-23T00:16:05.423Z,11.80
2018-09-23T00:17:05.296Z,11.78
2018-09-23T00:18:05.178Z,11.85
2018-09-23T00:19:05.050Z,11.87
2018-09-23T00:20:04.930Z,11.83
2018-09-23T00:21:04.800Z,11.83
2018-09-23T00:22:04.692Z,11.78
2018-09-23T00:23:04.555Z,11.77
2018-09-23T00:24:04.430Z,11.78
2018-09-23T00:25:04.309Z,11.77
2018-09-23T00:26:04.184Z,11.78
2018-09-23T00:27:04.058Z,11.80
2018-09-23T00:28:03.933Z,11.82
2018-09-23T00:29:03.810Z,11.83
2018-09-23T00:30:03.688Z,11.87
2018-09-23T00:31:03.563Z,11.85
2018-09-23T00:32:03.442Z,11.78
2018-09-23T00:33:03.316Z,11.75
2018-09-23T00:34:03.192Z,11.74
2018-09-23T00:35:03.069Z,11.67
2018-09-23T00:36:02.944Z,11.70
2018-09-23T00:37:02.818Z,11.70
2018-09-23T00:38:02.697Z,11.71
2018-09-23T00:39:02.572Z,11.72
2018-09-23T00:40:02.447Z,11.68
2018-09-23T00:41:02.323Z,11.71
2018-09-23T00:42:02.204Z,11.78
2018-09-23T00:43:02.076Z,11.77
2018-09-23T00:44:01.950Z,11.80
2018-09-23T00:45:01.831Z,11.82
2018-09-23T00:46:01.705Z,11.72
2018-09-23T00:47:01.580Z,11.68
2018-09-23T00:48:01.455Z,11.68
2018-09-23T00:49:01.331Z,11.64
2018-09-23T00:50:01.209Z,11.65
2018-09-23T00:51:01.090Z,11.71
2018-09-23T00:52:00.958Z,11.67
2018-09-23T00:53:00.836Z,11.71
2018-09-23T00:54:00.711Z,11.68
2018-09-23T00:55:00.587Z,11.77
2018-09-23T00:56:00.462Z,11.65
2018-09-23T00:57:00.337Z,11.75
2018-09-23T00:58:00.216Z,11.78
2018-09-23T00:59:00.091Z,11.70
2018-09-23T00:59:59.966Z,11.78
2018-09-23T01:00:59.839Z,11.74
2018-09-23T01:01:59.717Z,11.71
2018-09-23T01:02:59.594Z,11.70
2018-09-23T01:03:59.466Z,11.78
2018-09-23T01:04:59.343Z,11.71
2018-09-23T01:05:59.218Z,11.78
2018-09-23T01:06:59.096Z,11.75
2018-09-23T01:07:58.969Z,11.75
2018-09-23T01:08:58.847Z,11.90
2018-09-23T01:09:58.723Z,11.82
2018-09-23T01:10:58.602Z,11.82
2018-09-23T01:11:58.475Z,11.93
2018-09-23T01:12:58.351Z,11.93
2018-09-23T01:13:58.228Z,11.89
2018-09-23T01:14:58.101Z,11.93
2018-09-23T01:15:57.979Z,11.93
2018-09-23T01:16:57.855Z,11.90
2018-09-23T01:17:57.729Z,11.89
2018-09-23T01:18:57.604Z,12.05
2018-09-23T01:19:57.481Z,12.01
2018-09-23T01:20:57.357Z,12.02
2018-09-23T01:21:57.233Z,11.96
2018-09-23T01:22:57.109Z,11.97
2018-09-23T01:23:56.985Z,11.96
2018-09-23T01:24:56.862Z,11.99
2018-09-23T01:25:56.738Z,12.09
2018-09-23T01:26:56.614Z,12.09
2018-09-23T01:27:56.489Z,12.04
2018-09-23T01:28:56.366Z,12.08
2018-09-23T01:29:56.242Z,12.02
2018-09-23T01:30:56.118Z,12.09
2018-09-23T01:31:55.994Z,12.09
2018-09-23T01:32:55.873Z,12.13
2018-09-23T01:33:55.747Z,12.09
2018-09-23T01:34:55.623Z,12.05
2018-09-23T01:35:55.496Z,12.13
2018-09-23T01:36:55.382Z,12.09
2018-09-23T01:37:55.251Z,12.04
2018-09-23T01:38:55.128Z,12.08
2018-09-23T01:39:55.005Z,12.09
2018-09-23T01:40:54.877Z,12.11
2018-09-23T01:41:54.754Z,11.99
2018-09-23T01:42:54.632Z,12.06
2018-09-23T01:43:54.508Z,12.09
2018-09-23T01:44:54.391Z,11.97
2018-09-23T01:45:54.260Z,12.02
2018-09-23T01:46:54.137Z,11.94
2018-09-23T01:47:54.012Z,11.94
2018-09-23T01:48:53.890Z,11.82
2018-09-23T01:49:53.764Z,11.90
2018-09-23T01:50:53.641Z,11.83
2018-09-23T01:51:53.515Z,11.82
2018-09-23T01:52:53.395Z,11.70
2018-09-23T01:53:53.269Z,11.67
2018-09-23T01:54:53.155Z,11.68
2018-09-23T01:55:53.020Z,11.65
2018-09-23T01:56:52.897Z,11.67
2018-09-23T01:57:52.775Z,11.64
2018-09-23T01:58:52.650Z,11.64
2018-09-23T01:59:52.523Z,11.67
2018-09-23T02:00:52.400Z,11.71
2018-09-23T02:01:52.279Z,11.67
2018-09-23T02:02:52.164Z,11.68
2018-09-23T02:03:52.028Z,11.70
2018-09-23T02:04:51.902Z,11.78
2018-09-23T02:05:51.782Z,11.80
2018-09-23T02:06:51.654Z,11.85
2018-09-23T02:07:51.530Z,11.77
2018-09-23T02:08:51.406Z,11.80
2018-09-23T02:09:51.284Z,11.78
2018-09-23T02:10:51.160Z,11.78
2018-09-23T02:11:51.035Z,11.72
2018-09-23T02:12:50.910Z,11.86
2018-09-23T02:13:50.785Z,11.86
2018-09-23T02:14:50.661Z,11.89
2018-09-23T02:15:50.537Z,11.90
2018-09-23T02:16:50.414Z,11.82
2018-09-23T02:17:50.288Z,11.80
2018-09-23T02:18:50.167Z,11.83
2018-09-23T02:19:50.040Z,11.77
2018-09-23T02:20:49.919Z,11.82
2018-09-23T02:21:49.793Z,11.83
2018-09-23T02:22:49.670Z,11.82
2018-09-23T02:23:49.544Z,11.89
2018-09-23T02:24:49.421Z,11.82
2018-09-23T02:25:49.296Z,11.83
2018-09-23T02:26:49.172Z,11.77
2018-09-23T02:27:49.047Z,11.80
2018-09-23T02:28:48.926Z,11.72
2018-09-23T02:29:48.800Z,11.70
2018-09-23T02:30:48.676Z,11.78
2018-09-23T02:31:48.549Z,11.72
2018-09-23T02:32:48.429Z,11.75
2018-09-23T02:33:48.303Z,11.71
2018-09-23T02:34:48.182Z,11.65
2018-09-23T02:35:48.054Z,11.65
2018-09-23T02:36:47.932Z,11.57
2018-09-23T02:37:47.819Z,11.54
2018-09-23T02:38:47.687Z,11.59
2018-09-23T02:39:47.562Z,11.39
2018-09-23T02:40:47.436Z,11.56
2018-09-23T02:41:47.310Z,11.47
2018-09-23T02:42:47.187Z,11.50
2018-09-23T02:43:47.062Z,11.46
2018-09-23T02:44:46.937Z,11.52
2018-09-23T02:45:46.812Z,11.49
2018-09-23T02:46:46.690Z,11.47
2018-09-23T02:47:46.564Z,11.41
2018-09-23T02:48:46.440Z,11.46
2018-09-23T02:49:46.320Z,11.47
2018-09-23T02:50:46.194Z,11.43
2018-09-23T02:51:46.066Z,11.46
2018-09-23T02:52:45.941Z,11.36
2018-09-23T02:53:45.820Z,11.32
2018-09-23T02:54:45.694Z,11.36
2018-09-23T02:55:45.568Z,11.38
2018-09-23T02:56:45.447Z,11.31
2018-09-23T02:57:45.325Z,11.29
2018-09-23T02:58:45.196Z,11.27
2018-09-23T02:59:45.071Z,11.29
2018-09-23T03:00:44.954Z,11.16
2018-09-23T03:01:44.823Z,11.19
2018-09-23T03:02:44.699Z,11.35
2018-09-23T03:03:44.573Z,11.28
2018-09-23T03:04:44.451Z,11.25
2018-09-23T03:05:44.325Z,11.17
2018-09-23T03:06:44.200Z,11.16
2018-09-23T03:07:44.076Z,11.14
2018-09-23T03:08:43.950Z,11.17
2018-09-23T03:09:43.828Z,11.02
2018-09-23T03:10:43.703Z,11.16
2018-09-23T03:11:43.576Z,11.14
2018-09-23T03:12:43.454Z,11.17
2018-09-23T03:13:43.331Z,11.21
2018-09-23T03:14:43.205Z,11.07
2018-09-23T03:15:43.080Z,11.10
2018-09-23T03:16:42.955Z,11.13
2018-09-23T03:17:42.832Z,11.24
2018-09-23T03:18:42.707Z,11.13
2018-09-23T03:19:42.583Z,11.20
2018-09-23T03:20:42.457Z,11.11
2018-09-23T03:21:42.335Z,11.20
2018-09-23T03:22:42.212Z,11.24
2018-09-23T03:23:42.083Z,11.13
2018-09-23T03:24:41.959Z,11.19
2018-09-23T03:25:41.835Z,11.21
2018-09-23T03:26:41.710Z,11.19
2018-09-23T03:27:41.585Z,11.17
2018-09-23T03:28:41.461Z,11.19
2018-09-23T03:29:41.336Z,11.07
2018-09-23T03:30:41.212Z,11.11
2018-09-23T03:31:41.084Z,11.29
2018-09-23T03:32:40.963Z,11.29
2018-09-23T03:33:40.835Z,11.25
2018-09-23T03:34:40.715Z,11.21
2018-09-23T03:35:40.586Z,11.24
2018-09-23T03:36:40.463Z,11.28
2018-09-23T03:37:40.344Z,11.28
2018-09-23T03:38:40.213Z,11.20
2018-09-23T03:39:40.101Z,11.13
2018-09-23T03:40:39.963Z,11.16
2018-09-23T03:41:39.840Z,11.25
2018-09-23T03:42:39.715Z,11.19
2018-09-23T03:43:39.590Z,11.21
2018-09-23T03:44:39.475Z,11.21
2018-09-23T03:45:39.340Z,11.09
2018-09-23T03:46:39.219Z,11.01
2018-09-23T03:47:39.090Z,11.09
2018-09-23T03:48:38.967Z,11.09
2018-09-23T03:49:38.848Z,11.17
2018-09-23T03:50:38.771Z,11.25
2018-09-23T03:51:38.598Z,11.16
2018-09-23T03:52:38.469Z,11.19
2018-09-23T03:53:38.345Z,11.19
2018-09-23T03:54:38.221Z,11.24
2018-09-23T03:55:38.095Z,11.21
2018-09-23T03:56:37.971Z,11.35
2018-09-23T03:57:37.845Z,11.31
2018-09-23T03:58:37.722Z,11.36
2018-09-23T03:59:37.607Z,11.29
2018-09-23T04:00:37.474Z,11.21
2018-09-23T04:01:37.347Z,11.27
2018-09-23T04:02:37.222Z,11.24
2018-09-23T04:03:37.103Z,11.38
2018-09-23T04:04:36.974Z,11.28
2018-09-23T04:05:36.851Z,11.38
2018-09-23T04:06:36.725Z,11.35
2018-09-23T04:07:36.600Z,11.35
2018-09-23T04:08:36.475Z,11.32
2018-09-23T04:09:36.351Z,11.36
2018-09-23T04:10:36.227Z,11.35
2018-09-23T04:11:36.105Z,11.38
2018-09-23T04:12:35.979Z,11.43
2018-09-23T04:13:35.853Z,11.50
2018-09-23T04:14:35.728Z,11.41
2018-09-23T04:15:35.604Z,11.44
2018-09-23T04:16:35.479Z,11.47
2018-09-23T04:17:35.353Z,11.39
2018-09-23T04:18:35.232Z,11.47
2018-09-23T04:19:35.104Z,11.53
2018-09-23T04:20:34.982Z,11.44
2018-09-23T04:21:34.857Z,11.50
2018-09-23T04:22:34.733Z,11.53
2018-09-23T04:23:34.607Z,11.54
2018-09-23T04:24:34.483Z,11.52
2018-09-23T04:25:34.362Z,11.46
2018-09-23T04:26:34.236Z,11.44
2018-09-23T04:27:34.110Z,11.43
2018-09-23T04:28:33.984Z,11.46
2018-09-23T04:29:33.859Z,11.50
2018-09-23T04:30:33.736Z,11.52
2018-09-23T04:31:33.615Z,11.56
2018-09-23T04:32:33.497Z,11.57
2018-09-23T04:33:33.363Z,11.61
2018-09-23T04:34:33.239Z,11.65
2018-09-23T04:35:33.114Z,11.67
2018-09-23T04:36:32.992Z,11.56
2018-09-23T04:37:32.895Z,11.59
2018-09-23T04:38:32.741Z,11.61
2018-09-23T04:39:32.618Z,11.56
2018-09-23T04:40:32.493Z,11.57
2018-09-23T04:41:32.370Z,11.61
2018-09-23T04:42:32.245Z,11.67
2018-09-23T04:43:32.121Z,11.68
2018-09-23T04:44:31.999Z,11.67
2018-09-23T04:45:31.870Z,11.59
2018-09-23T04:46:31.748Z,11.61
2018-09-23T04:47:31.622Z,11.70
2018-09-23T04:48:31.514Z,11.62
2018-09-23T04:49:31.373Z,11.59
2018-09-23T04:50:31.285Z,11.56
2018-09-23T04:51:31.128Z,11.56
2018-09-23T04:52:31.003Z,11.64
2018-09-23T04:53:30.877Z,11.64
2018-09-23T04:54:30.753Z,11.65
2018-09-23T04:55:30.629Z,11.70
2018-09-23T04:56:30.501Z,11.67
2018-09-23T04:57:30.379Z,11.68
2018-09-23T04:58:30.286Z,11.72
2018-09-23T04:59:30.174Z,11.80
2018-09-23T05:00:30.006Z,11.86
2018-09-23T05:01:29.884Z,11.67
2018-09-23T05:02:29.797Z,11.67
2018-09-23T05:03:29.636Z,11.74
2018-09-23T05:04:29.519Z,11.74
2018-09-23T05:05:29.385Z,11.71
2018-09-23T05:06:29.261Z,11.68
2018-09-23T05:07:29.143Z,11.78
2018-09-23T05:08:29.013Z,11.71
2018-09-23T05:09:28.888Z,11.85
2018-09-23T05:10:28.764Z,11.74
2018-09-23T05:11:28.668Z,11.83
2018-09-23T05:12:28.594Z,11.82
2018-09-23T05:13:28.391Z,11.75
2018-09-23T05:14:28.269Z,11.82
2018-09-23T05:15:28.145Z,11.77
2018-09-23T05:16:28.023Z,11.80
2018-09-23T05:17:27.895Z,11.80
2018-09-23T05:18:27.770Z,11.80
2018-09-23T05:19:27.646Z,11.83
2018-09-23T05:20:27.523Z,11.77
2018-09-23T05:21:27.400Z,11.78
2018-09-23T05:22:27.275Z,11.78
2018-09-23T05:23:27.150Z,11.83
2018-09-23T05:24:27.026Z,11.85
2018-09-23T05:25:26.904Z,11.87
2018-09-23T05:26:26.779Z,11.82
2018-09-23T05:27:26.654Z,11.78
2018-09-23T05:28:26.530Z,11.78
2018-09-23T05:29:26.405Z,11.82
2018-09-23T05:30:26.295Z,11.86
2018-09-23T05:31:26.159Z,11.77
2018-09-23T05:32:26.034Z,11.85
2018-09-23T05:33:25.913Z,11.87
2018-09-23T05:34:25.785Z,11.89
2018-09-23T05:35:25.728Z,11.90
2018-09-23T05:36:25.538Z,11.86
2018-09-23T05:37:25.415Z,11.90
2018-09-23T05:38:25.290Z,11.93
2018-09-23T05:39:25.170Z,11.90
2018-09-23T05:40:25.042Z,11.83
2018-09-23T05:41:24.918Z,11.86
2018-09-23T05:42:24.797Z,11.86
2018-09-23T05:43:24.673Z,11.93
2018-09-23T05:44:24.551Z,12.02
2018-09-23T05:45:24.422Z,12.08
2018-09-23T05:46:24.299Z,12.09
2018-09-23T05:47:24.174Z,12.13
2018-09-23T05:48:24.053Z,12.06
2018-09-23T05:49:23.927Z,12.08
2018-09-23T05:50:23.805Z,12.15
2018-09-23T05:51:23.677Z,12.11
2018-09-23T05:52:23.556Z,12.11
2018-09-23T05:53:23.433Z,12.12
2018-09-23T05:54:23.306Z,12.21
2018-09-23T05:55:23.181Z,12.26
2018-09-23T05:56:23.063Z,12.16
2018-09-23T05:57:22.936Z,12.31
2018-09-23T05:58:22.819Z,12.26
2018-09-23T05:59:22.690Z,12.26
2018-09-23T06:00:22.565Z,12.26
2018-09-23T06:01:22.441Z,12.27
2018-09-23T06:02:22.316Z,12.23
2018-09-23T06:03:22.192Z,12.23
2018-09-23T06:04:22.066Z,12.26
2018-09-23T06:05:21.947Z,12.23
2018-09-23T06:06:21.820Z,12.31
2018-09-23T06:07:21.696Z,12.27
2018-09-23T06:08:21.572Z,12.30
2018-09-23T06:09:21.455Z,12.33
2018-09-23T06:10:21.324Z,12.39
2018-09-23T06:11:21.206Z,12.33
2018-09-23T06:12:21.123Z,12.34
2018-09-23T06:13:21.009Z,12.38
2018-09-23T06:14:20.866Z,12.38
2018-09-23T06:15:20.707Z,12.31
2018-09-23T06:16:20.583Z,12.31
2018-09-23T06:17:20.459Z,12.41
2018-09-23T06:18:20.340Z,12.42
2018-09-23T06:19:20.212Z,12.44
2018-09-23T06:20:20.089Z,12.44
2018-09-23T06:21:19.967Z,12.29
2018-09-23T06:22:19.906Z,12.41
2018-09-23T06:23:19.719Z,12.31
2018-09-23T06:24:19.594Z,12.39
2018-09-23T06:25:19.588Z,12.44
2018-09-23T06:26:19.345Z,12.48
2018-09-23T06:27:19.259Z,12.49
2018-09-23T06:28:19.106Z,12.59
2018-09-23T06:29:18.976Z,12.56
2018-09-23T06:30:18.851Z,12.63
2018-09-23T06:31:18.727Z,12.64
2018-09-23T06:32:18.602Z,12.63
2018-09-23T06:33:18.481Z,12.67
2018-09-23T06:34:18.404Z,12.60
2018-09-23T06:35:18.233Z,12.67
2018-09-23T06:36:18.114Z,12.70
2018-09-23T06:37:17.987Z,12.71
2018-09-23T06:38:17.865Z,12.77
2018-09-23T06:39:17.739Z,12.81
2018-09-23T06:40:17.615Z,12.81
2018-09-23T06:41:17.491Z,12.77
2018-09-23T06:42:17.367Z,12.78
2018-09-23T06:43:17.242Z,12.78
2018-09-23T06:44:17.127Z,12.78
2018-09-23T06:45:16.996Z,12.81
2018-09-23T06:46:16.873Z,12.87
2018-09-23T06:47:16.750Z,12.87
2018-09-23T06:48:16.703Z,12.85
2018-09-23T06:49:16.503Z,12.87
2018-09-23T06:50:16.380Z,12.99
2018-09-23T06:51:16.271Z,13.06
2018-09-23T06:52:16.135Z,12.99
2018-09-23T06:53:16.010Z,13.04
2018-09-23T06:54:15.889Z,13.20
2018-09-23T06:55:15.765Z,13.21
2018-09-23T06:56:15.641Z,13.38
2018-09-23T06:57:15.544Z,13.40
2018-09-23T06:58:15.392Z,13.44
2018-09-23T06:59:15.270Z,13.54
2018-09-23T07:00:15.150Z,13.58
2018-09-23T07:01:15.026Z,13.79
2018-09-23T07:02:14.905Z,13.95
2018-09-23T07:03:14.778Z,14.16
2018-09-23T07:04:14.654Z,14.29
2018-09-23T07:05:14.528Z,14.39
2018-09-23T07:06:14.407Z,14.53
2018-09-23T07:07:14.286Z,14.71
2018-09-23T07:08:14.164Z,14.99
2018-09-23T07:09:14.039Z,15.19
2018-09-23T07:10:13.926Z,15.33
2018-09-23T07:11:13.795Z,15.48
2018-09-23T07:12:13.670Z,15.72
2018-09-23T07:13:13.550Z,15.70
2018-09-23T07:14:13.428Z,15.74
2018-09-23T07:15:13.304Z,15.79
2018-09-23T07:16:13.183Z,15.89
2018-09-23T07:17:13.058Z,16.00
2018-09-23T07:18:13.001Z,15.99
2018-09-23T07:19:12.814Z,16.00
2018-09-23T07:20:12.694Z,16.03
2018-09-23T07:21:12.571Z,16.06
2018-09-23T07:22:12.451Z,15.93
2018-09-23T07:23:12.328Z,15.70
2018-09-23T07:24:12.272Z,15.79
2018-09-23T07:25:12.085Z,15.82
2018-09-23T07:26:11.962Z,15.97
2018-09-23T07:27:11.840Z,16.16
2018-09-23T07:28:11.720Z,16.14
2018-09-23T07:29:11.600Z,16.09
2018-09-23T07:30:11.482Z,16.16
2018-09-23T07:31:11.353Z,16.18
2018-09-23T07:32:11.236Z,16.49
2018-09-23T07:33:11.112Z,16.73
2018-09-23T07:34:10.992Z,16.81
2018-09-23T07:35:10.868Z,16.96
2018-09-23T07:36:10.749Z,17.04
2018-09-23T07:37:10.651Z,17.18
2018-09-23T07:38:10.511Z,17.06
2018-09-23T07:39:10.383Z,16.88
2018-09-23T07:40:10.266Z,16.80
2018-09-23T07:41:10.147Z,16.80
2018-09-23T07:42:10.022Z,16.89
2018-09-23T07:43:09.906Z,16.93
2018-09-23T07:44:09.780Z,16.86
2018-09-23T07:45:09.659Z,16.77
2018-09-23T07:46:09.539Z,16.85
2018-09-23T07:47:09.418Z,16.70
2018-09-23T07:48:09.331Z,16.62
2018-09-23T07:49:09.176Z,16.63
2018-09-23T07:50:09.056Z,16.83
2018-09-23T07:51:08.936Z,16.81
2018-09-23T07:52:08.813Z,16.85
2018-09-23T07:53:08.694Z,16.81
2018-09-23T07:54:08.573Z,16.96
2018-09-23T07:55:08.451Z,17.00
2018-09-23T07:56:08.378Z,17.26
2018-09-23T07:57:08.213Z,17.59
2018-09-23T07:58:08.091Z,17.71
2018-09-23T07:59:07.968Z,17.97
2018-09-23T08:00:07.848Z,18.18
2018-09-23T08:01:07.729Z,18.47
2018-09-23T08:02:07.609Z,18.47
2018-09-23T08:03:07.489Z,18.62
2018-09-23T08:04:07.373Z,18.86
2018-09-23T08:05:07.250Z,18.91
2018-09-23T08:06:07.130Z,19.14
2018-09-23T08:07:07.008Z,19.08
2018-09-23T08:08:06.891Z,19.08
2018-09-23T08:09:06.769Z,19.08
2018-09-23T08:10:06.649Z,19.23
2018-09-23T08:11:06.530Z,19.23
2018-09-23T08:12:06.413Z,19.10
2018-09-23T08:13:06.493Z,19.28
2018-09-23T08:14:06.632Z,19.18
2018-09-23T08:15:06.157Z,19.18
2018-09-23T08:16:05.933Z,19.21
2018-09-23T08:17:05.866Z,19.33
2018-09-23T08:18:05.697Z,19.32
2018-09-23T08:19:05.577Z,19.47
2018-09-23T08:20:05.510Z,19.72
2018-09-23T08:21:05.370Z,19.76
2018-09-23T08:22:05.221Z,20.09
2018-09-23T08:23:05.138Z,20.21
2018-09-23T08:24:04.987Z,20.00
2018-09-23T08:25:04.935Z,19.80
2018-09-23T08:26:04.746Z,19.87
2018-09-23T08:27:04.627Z,20.15
2018-09-23T08:28:04.510Z,20.21
2018-09-23T08:29:04.399Z,20.25
2018-09-23T08:30:04.273Z,20.47
2018-09-23T08:31:04.155Z,20.64
2018-09-23T08:32:04.035Z,20.50
2018-09-23T08:33:03.969Z,20.56
2018-09-23T08:34:03.802Z,20.62
2018-09-23T08:35:03.681Z,20.80
2018-09-23T08:36:03.581Z,20.59
2018-09-23T08:37:03.446Z,20.54
2018-09-23T08:38:03.328Z,20.54
2018-09-23T08:39:03.211Z,20.16
2018-09-23T08:40:03.101Z,20.05
2018-09-23T08:41:02.974Z,20.27
2018-09-23T08:42:02.857Z,20.42
2018-09-23T08:43:02.744Z,20.79
2018-09-23T08:44:02.620Z,21.16
2018-09-23T08:45:02.504Z,21.16
2018-09-23T08:46:02.389Z,21.13
2018-09-23T08:47:02.267Z,21.34
2018-09-23T08:48:02.173Z,21.34
2018-09-23T08:49:02.039Z,21.53
2018-09-23T08:50:01.916Z,21.59
2018-09-23T08:51:01.799Z,21.79
2018-09-23T08:52:01.754Z,21.71
2018-09-23T08:53:01.570Z,21.71
2018-09-23T08:54:01.448Z,21.34
2018-09-23T08:55:01.329Z,21.36
2018-09-23T08:56:01.258Z,21.39
2018-09-23T08:57:01.098Z,21.38
2018-09-23T08:58:00.981Z,21.57
2018-09-23T08:59:00.863Z,21.63
2018-09-23T09:00:00.745Z,21.66
2018-09-23T09:01:00.630Z,21.88
2018-09-23T09:02:00.513Z,22.12
2018-09-23T09:03:00.396Z,22.29
2018-09-23T09:04:00.279Z,22.57
2018-09-23T09:05:00.162Z,22.49
2018-09-23T09:06:00.046Z,22.43
2018-09-23T09:24:47.071Z,22.86
2018-09-23T09:36:19.268Z,23.61
2018-09-23T09:37:19.015Z,23.65
2018-09-23T09:39:11.694Z,23.97
2018-09-23T09:40:11.569Z,23.83
2018-09-23T09:42:04.274Z,24.01
2018-09-23T09:43:04.118Z,24.07
2018-09-23T09:44:56.842Z,24.14
2018-09-23T09:45:56.676Z,24.38
2018-09-23T09:47:49.387Z,24.35
2018-09-23T09:48:49.228Z,24.52
2018-09-23T09:50:41.974Z,23.53
2018-09-23T09:51:41.820Z,23.50
2018-09-23T09:52:41.674Z,23.38
2018-09-23T09:53:41.558Z,23.20
2018-09-23T09:54:41.472Z,22.97
2018-09-23T09:55:41.411Z,22.97
2018-09-23T09:56:41.326Z,23.20
2018-09-23T09:57:41.157Z,23.53
2018-09-23T09:58:40.983Z,23.46
2018-09-23T09:59:40.968Z,23.89
2018-09-23T10:00:40.769Z,24.12
2018-09-23T10:01:40.632Z,24.07
2018-09-23T10:02:40.518Z,24.01
2018-09-23T10:03:40.461Z,24.19
2018-09-23T10:04:40.312Z,24.42
2018-09-23T10:05:40.174Z,24.41
2018-09-23T10:06:40.059Z,24.59
2018-09-23T10:07:39.944Z,24.82
2018-09-23T10:08:39.830Z,25.00
2018-09-23T10:09:39.712Z,25.22
2018-09-23T10:10:39.607Z,24.94
2018-09-23T10:11:39.568Z,24.95
2018-09-23T10:12:39.369Z,25.06
2018-09-23T10:13:39.254Z,25.28
2018-09-23T10:14:39.140Z,24.80
2018-09-23T10:15:39.025Z,24.80
2018-09-23T10:16:38.913Z,24.45
2018-09-23T10:17:38.796Z,24.54
2018-09-23T10:18:38.689Z,24.64
2018-09-23T10:19:38.615Z,24.67
2018-09-23T10:20:38.455Z,24.88
2018-09-23T10:21:38.341Z,24.16
2018-09-23T10:22:38.263Z,24.29
2018-09-23T10:23:38.251Z,24.44
2018-09-23T10:24:38.002Z,24.87
2018-09-23T10:25:37.895Z,24.92
2018-09-23T10:26:37.770Z,25.19
2018-09-23T10:27:37.657Z,25.17
2018-09-23T10:28:37.543Z,24.75
2018-09-23T10:29:37.447Z,24.90
2018-09-23T10:30:37.316Z,23.79
2018-09-23T10:31:37.331Z,24.22
2018-09-23T10:32:37.088Z,24.53
2018-09-23T10:33:36.973Z,24.71
2018-09-23T10:34:37.008Z,24.57
2018-09-23T10:35:36.759Z,24.79
2018-09-23T10:36:36.632Z,24.82
2018-09-23T10:37:36.519Z,25.07
2018-09-23T10:38:36.405Z,25.34
2018-09-23T10:39:36.310Z,25.42
2018-09-23T10:40:36.174Z,25.67
2018-09-23T10:41:36.062Z,25.74
2018-09-23T10:42:35.952Z,25.68
2018-09-23T10:43:35.835Z,25.82
2018-09-23T10:44:35.720Z,26.01
2018-09-23T10:45:35.607Z,26.11
2018-09-23T10:46:35.496Z,26.35
2018-09-23T10:47:35.381Z,26.31
2018-09-23T10:48:35.266Z,26.17
2018-09-23T10:49:35.206Z,25.71
2018-09-23T10:50:35.048Z,25.79
2018-09-23T10:51:34.932Z,25.57
2018-09-23T10:52:34.813Z,25.72
2018-09-23T10:53:34.700Z,25.54
2018-09-23T10:54:34.585Z,25.62
2018-09-23T10:55:34.560Z,25.80
2018-09-23T10:56:34.360Z,25.82
2018-09-23T10:57:34.247Z,25.59
2018-09-23T10:58:34.135Z,25.64
2018-09-23T10:59:34.064Z,25.86
2018-09-23T11:00:33.907Z,26.09
2018-09-23T11:01:33.793Z,26.47
2018-09-23T11:02:33.681Z,26.76
2018-09-23T11:03:33.582Z,26.59
2018-09-23T11:04:33.453Z,26.44
2018-09-23T11:05:33.550Z,26.37
2018-09-23T11:06:33.287Z,26.54
2018-09-23T11:07:33.519Z,26.64
2018-09-23T11:08:33.000Z,26.55
2018-09-23T11:09:32.888Z,26.52
2018-09-23T11:10:32.774Z,26.49
2018-09-23T11:11:32.662Z,26.46
2018-09-23T11:12:32.547Z,26.55
2018-09-23T11:13:32.437Z,26.09
2018-09-23T11:14:32.322Z,25.99
2018-09-23T11:15:32.212Z,26.27
2018-09-23T11:16:32.096Z,26.27
2018-09-23T11:17:32.012Z,26.18
2018-09-23T11:18:31.872Z,26.39
2018-09-23T11:19:31.756Z,26.58
2018-09-23T11:20:31.644Z,26.81
2018-09-23T11:21:31.532Z,26.52
2018-09-23T11:22:31.416Z,26.09
2018-09-23T11:23:31.362Z,26.22
2018-09-23T11:24:31.205Z,26.32
2018-09-23T11:25:31.076Z,26.21
2018-09-23T11:26:30.964Z,25.98
2018-09-23T11:27:30.851Z,26.11
2018-09-23T11:28:30.733Z,26.28
2018-09-23T11:29:30.623Z,26.08
2018-09-23T11:30:30.518Z,25.97
2018-09-23T11:31:30.400Z,25.68
2018-09-23T11:32:30.283Z,25.86
2018-09-23T11:33:30.168Z,25.39
2018-09-23T11:34:30.053Z,25.19
2018-09-23T11:35:29.939Z,24.95
2018-09-23T11:36:29.834Z,25.01
2018-09-23T11:37:29.718Z,24.83
2018-09-23T11:38:29.617Z,24.47
2018-09-23T11:39:29.484Z,24.47
2018-09-23T11:40:29.369Z,24.50
2018-09-23T11:41:29.257Z,24.57
2018-09-23T11:42:29.141Z,24.05
2018-09-23T11:43:29.026Z,24.10
2018-09-23T11:44:28.911Z,24.04
2018-09-23T11:45:28.797Z,24.22
2018-09-23T11:46:28.684Z,24.37
2018-09-23T11:47:28.570Z,24.52
2018-09-23T11:48:28.453Z,24.71
2018-09-23T11:49:28.343Z,24.79
2018-09-23T11:50:28.224Z,25.01
2018-09-23T11:51:28.110Z,24.85
2018-09-23T11:52:27.996Z,24.75
2018-09-23T11:53:27.878Z,24.69
2018-09-23T11:54:27.766Z,24.44
2018-09-23T11:55:27.726Z,24.31
2018-09-23T11:56:27.537Z,24.07
2018-09-23T11:57:27.419Z,23.87
2018-09-23T11:58:27.305Z,23.65
2018-09-23T11:59:27.190Z,23.64
2018-09-23T12:00:27.076Z,23.85
2018-09-23T12:01:26.960Z,23.77
2018-09-23T12:02:26.846Z,23.79
2018-09-23T12:03:26.731Z,23.83
2018-09-23T12:04:26.652Z,23.89
2018-09-23T12:05:26.498Z,23.89
2018-09-23T12:06:26.386Z,23.80
2018-09-23T12:07:26.270Z,23.82
2018-09-23T12:08:26.155Z,23.65
2018-09-23T12:09:26.040Z,23.92
2018-09-23T12:10:26.039Z,24.05
2018-09-23T12:11:25.846Z,23.94
2018-09-23T12:12:25.700Z,24.60
2018-09-23T12:13:25.576Z,24.97
2018-09-23T12:14:25.476Z,25.46
2018-09-23T12:15:25.349Z,25.71
2018-09-23T12:16:25.229Z,25.91
2018-09-23T12:17:25.115Z,25.49
2018-09-23T12:18:25.000Z,24.98
2018-09-23T12:19:24.887Z,25.28
2018-09-23T12:20:24.775Z,25.20
2018-09-23T12:21:24.656Z,24.75
2018-09-23T12:22:24.541Z,24.64
2018-09-23T12:23:24.428Z,24.42
2018-09-23T12:24:24.313Z,24.63
2018-09-23T12:25:24.274Z,24.02
2018-09-23T12:26:24.081Z,23.60
2018-09-23T12:27:23.967Z,23.55
2018-09-23T12:28:23.849Z,23.94
2018-09-23T12:29:23.734Z,24.07
2018-09-23T12:30:23.623Z,24.17
2018-09-23T12:31:23.505Z,24.54
2018-09-23T12:32:23.388Z,24.85
2018-09-23T12:33:23.373Z,24.83
2018-09-23T12:34:23.163Z,24.77
2018-09-23T12:35:23.049Z,24.69
2018-09-23T12:36:22.927Z,24.49
2018-09-23T12:37:22.816Z,24.73
2018-09-23T12:38:22.699Z,24.91
2018-09-23T12:39:22.653Z,25.09
2018-09-23T12:40:22.465Z,25.05
2018-09-23T12:41:22.358Z,25.02
2018-09-23T12:42:22.237Z,25.19
2018-09-23T12:43:22.123Z,25.59
2018-09-23T12:44:22.008Z,25.67
2018-09-23T12:45:21.910Z,25.65
2018-09-23T12:46:21.771Z,25.59
2018-09-23T12:47:21.665Z,25.65
2018-09-23T12:48:21.543Z,25.42
2018-09-23T12:49:21.495Z,25.31
2018-09-23T12:50:21.312Z,25.17
2018-09-23T12:51:21.237Z,25.35
2018-09-23T12:52:21.236Z,25.32
2018-09-23T12:53:20.965Z,25.31
2018-09-23T12:54:20.853Z,25.31
2018-09-23T12:55:20.738Z,25.62
2018-09-23T12:56:20.619Z,25.97
2018-09-23T12:57:20.502Z,26.31
2018-09-23T12:58:20.390Z,26.62
2018-09-23T12:59:20.273Z,26.76
2018-09-23T13:00:20.159Z,26.73
2018-09-23T13:01:20.049Z,26.87
2018-09-23T13:02:19.965Z,26.92
2018-09-23T13:03:19.821Z,27.09
2018-09-23T13:04:19.700Z,27.19
2018-09-23T13:05:19.587Z,27.06
2018-09-23T13:06:19.471Z,26.96
2018-09-23T13:07:20.365Z,26.96
2018-09-23T13:08:19.242Z,26.73
2018-09-23T13:09:19.127Z,25.93
2018-09-23T13:10:19.015Z,25.83
2018-09-23T13:11:18.900Z,25.34
2018-09-23T13:12:18.785Z,25.97
2018-09-23T13:13:18.673Z,26.54
2018-09-23T13:14:18.558Z,26.35
2018-09-23T13:15:18.442Z,26.76
2018-09-23T13:16:18.329Z,26.80
2018-09-23T13:17:18.215Z,27.16
2018-09-23T13:18:18.297Z,27.39
2018-09-23T13:19:17.992Z,27.50
2018-09-23T13:20:17.876Z,27.70
2018-09-23T13:21:17.761Z,28.01
2018-09-23T13:22:17.743Z,28.29
2018-09-23T13:23:17.537Z,28.60